Time;durP1;ratioP1;P1;durP2;ratioP2;P2;SDS_P1;SDS_P2;PMS_P1;PMS_P2;Temp;Humidity;BMP_temperature;BMP_pressure;BME280_temperature;BME280_humidity;BME280_pressure;Samples;Min_cycle;Max_cycle;Signal;HPM_P1;HPM_P2
2022/04/01 00:01:34;;;;;;;37.65;19.13;;;4.50;99.90;;;;;;20682261;28;20042;-49
2022/04/01 00:11:37;;;;;;;44.28;20.27;;;4.40;99.90;;;;;;20681693;28;20118;-50
2022/04/01 00:21:40;;;;;;;400.15;29.55;;;4.40;99.90;;;;;;20681363;28;20042;-47
2022/04/01 00:31:58;;;;;;;976.95;49.70;;;4.40;99.90;;;;;;20647694;28;20461;-47
2022/04/01 00:42:03;;;;;;;735.17;38.65;;;4.50;99.90;;;;;;20679663;28;20046;-47
2022/04/01 00:52:09;;;;;;;563.35;30.05;;;4.50;99.90;;;;;;20677741;28;20551;-49
2022/04/01 01:02:14;;;;;;;766.25;39.33;;;4.50;99.90;;;;;;20679198;28;20046;-46
2022/04/01 01:12:17;;;;;;;551.70;33.55;;;4.50;99.90;;;;;;20677034;28;20038;-49
2022/04/01 01:22:20;;;;;;;586.33;35.40;;;4.50;99.90;;;;;;20643869;28;20038;-49
2022/04/01 01:32:23;;;;;;;576.78;33.33;;;4.50;99.90;;;;;;20658952;28;20038;-47
2022/04/01 01:42:25;;;;;;;907.92;50.03;;;4.50;99.90;;;;;;20642117;28;20085;-47
2022/04/01 02:02:49;;;;;;;;;;;4.30;99.90;;;;;;20654970;28;20034;-48
2022/04/01 02:12:53;;;;;;;43.92;22.27;;;4.20;99.90;;;;;;20656148;28;19921;-48
2022/04/01 02:22:55;;;;;;;32.67;17.00;;;3.90;99.90;;;;;;20671653;28;20034;-49
2022/04/01 02:32:58;;;;;;;54.70;16.30;;;3.90;99.90;;;;;;20671064;28;20034;-54
2022/04/01 02:43:07;;;;;;;62.85;17.67;;;3.60;99.90;;;;;;20637785;28;20054;-55
2022/04/01 02:53:17;;;;;;;180.70;21.35;;;3.60;99.90;;;;;;20653753;28;20099;-50
2022/04/01 03:03:21;;;;;;;418.65;30.17;;;3.80;99.90;;;;;;20670803;28;20038;-51
2022/04/01 03:13:25;;;;;;;685.08;40.38;;;4.00;99.90;;;;;;20637497;28;20065;-49
2022/04/01 03:23:48;;;;;;;453.25;28.48;;;4.10;99.90;;;;;;20563671;28;20043;-48
2022/04/01 03:33:56;;;;;;;175.05;27.33;;;4.20;99.90;;;;;;20563176;28;20698;-49
2022/04/01 03:44:01;;;;;;;295.88;31.33;;;4.20;99.90;;;;;;20561987;28;20569;-50
2022/04/01 03:54:06;;;;;;;569.42;44.13;;;4.20;99.90;;;;;;20595764;28;20042;-47
2022/04/01 04:04:29;;;;;;;664.25;45.15;;;4.30;99.90;;;;;;20665763;28;20089;-51
2022/04/01 04:14:33;;;;;;;1466.82;78.53;;;4.30;99.90;;;;;;20665104;28;20069;-48
2022/04/01 04:24:54;;;;;;;1326.13;72.03;;;4.10;99.90;;;;;;20665358;28;20030;-47
2022/04/01 04:35:07;;;;;;;25.10;13.52;;;4.00;99.90;;;;;;20647899;28;20038;-46
2022/04/01 04:45:13;;;;;;;15.40;7.03;;;3.80;99.90;;;;;;20646833;28;20062;-46
2022/04/01 04:55:18;;;;;;;10.73;6.03;;;3.60;99.90;;;;;;20646139;28;20042;-48
2022/04/01 05:05:54;;;;;;;12.73;5.75;;;3.60;99.90;;;;;;20661782;28;20441;-47
2022/04/01 05:16:07;;;;;;;;;;;3.50;99.90;;;;;;20661118;28;20038;-49
2022/04/01 05:26:13;;;;;;;19.42;7.22;;;3.60;99.90;;;;;;20659902;28;19910;-48
2022/04/01 05:36:36;;;;;;;11.05;6.18;;;3.70;99.90;;;;;;20675274;28;20046;-49
2022/04/01 05:46:40;;;;;;;12.68;5.55;;;3.70;99.90;;;;;;20657030;28;20073;-47
2022/04/01 05:56:47;;;;;;;8.15;4.40;;;3.70;99.90;;;;;;20657306;28;20038;-53
2022/04/01 06:06:53;;;;;;;8.70;4.75;;;3.80;99.90;;;;;;20673113;28;20084;-55
2022/04/01 06:17:11;;;;;;;8.70;4.45;;;3.80;99.90;;;;;;20639286;28;20497;-48
2022/04/01 06:27:28;;;;;;;14.00;6.10;;;3.80;99.90;;;;;;20672622;28;20084;-47
2022/04/01 06:37:42;;;;;;;19.02;9.52;;;3.70;99.90;;;;;;20639192;28;20051;-55
2022/04/01 06:47:46;;;;;;;36.08;15.23;;;3.60;99.90;;;;;;20638000;28;20038;-46
2022/04/01 06:57:52;;;;;;;37.60;13.20;;;3.80;99.90;;;;;;20653757;28;20030;-55
2022/04/01 07:08:08;;;;;;;50.53;17.42;;;3.80;99.90;;;;;;20637292;28;20034;-45
2022/04/01 07:18:11;;;;;;;441.08;30.27;;;3.90;99.90;;;;;;20669186;28;20449;-46
2022/04/01 07:28:13;;;;;;;683.58;38.88;;;4.10;99.90;;;;;;20652783;28;20038;-51
2022/04/01 07:38:16;;;;;;;499.92;33.20;;;4.10;99.90;;;;;;20668438;28;20494;-56
2022/04/01 07:48:21;;;;;;;39.03;18.83;;;4.20;99.90;;;;;;20668601;28;20439;-46
2022/04/01 07:58:24;;;;;;;107.97;19.70;;;4.60;99.90;;;;;;20668014;28;20105;-48
2022/04/01 08:08:26;;;;;;;134.25;20.65;;;4.50;99.90;;;;;;20677644;28;20478;-47
2022/04/01 08:18:28;;;;;;;153.70;10.70;;;4.40;99.90;;;;;;20681782;28;20401;-47
2022/04/01 08:28:31;;;;;;;245.07;15.02;;;4.00;99.90;;;;;;20681627;28;20097;-47
2022/04/01 08:38:34;;;;;;;60.80;6.88;;;3.50;99.90;;;;;;20663901;28;20078;-47
2022/04/01 08:48:37;;;;;;;7.57;4.32;;;3.40;99.90;;;;;;20663454;28;20093;-47
2022/04/01 08:58:41;;;;;;;4.40;2.35;;;3.30;99.90;;;;;;20679060;28;20035;-48
2022/04/01 09:08:45;;;;;;;1.80;1.00;;;2.80;99.90;;;;;;20680761;28;20097;-49
2022/04/01 09:18:48;;;;;;;8.20;2.92;;;2.20;99.90;;;;;;20677303;28;20437;-47
2022/04/01 09:28:52;;;;;;;552.25;26.38;;;2.30;99.90;;;;;;20676537;28;20565;-49
2022/04/01 09:39:08;;;;;;;9.82;1.83;;;2.30;99.90;;;;;;20673758;28;20514;-48
2022/04/01 09:49:29;;;;;;;1.40;0.65;;;1.90;99.90;;;;;;20658786;28;20050;-50
2022/04/01 09:59:36;;;;;;;0.68;0.38;;;1.80;99.90;;;;;;20674391;28;20034;-47
2022/04/01 10:09:54;;;;;;;109.53;4.60;;;1.80;99.90;;;;;;20660819;28;20418;-49
2022/04/01 10:32:26;;;;;;;0.30;0.10;;;1.90;99.90;;;;;;20676265;28;20386;-48
2022/04/01 10:42:39;;;;;;;1.83;1.00;;;2.10;99.90;;;;;;20638713;28;20054;-47
2022/04/01 10:52:41;;;;;;;4.03;2.50;;;2.40;99.90;;;;;;20670833;28;20030;-48
2022/04/01 11:02:46;;;;;;;514.88;24.25;;;2.90;99.90;;;;;;20667594;28;20392;-48
2022/04/01 11:12:51;;;;;;;486.35;25.35;;;3.30;99.90;;;;;;20653949;28;20058;-49
2022/04/01 11:22:53;;;;;;;785.08;39.42;;;3.50;99.90;;;;;;20669591;28;20383;-51
2022/04/01 11:32:57;;;;;;;973.65;49.90;;;3.70;99.90;;;;;;20669072;28;20073;-51
2022/04/01 11:43:04;;;;;;;949.15;48.30;;;3.80;99.90;;;;;;20683335;28;20054;-52
2022/04/01 11:53:07;;;;;;;561.70;31.23;;;4.10;99.90;;;;;;20684095;28;20034;-51
2022/04/01 12:03:10;;;;;;;304.63;17.40;;;4.70;99.90;;;;;;20683301;28;20517;-52
2022/04/01 12:13:13;;;;;;;528.83;30.50;;;5.50;99.90;;;;;;20684350;28;20038;-49
2022/04/01 12:23:18;;;;;;;141.73;11.65;;;5.70;99.90;;;;;;20681837;28;20042;-49
2022/04/01 12:33:30;;;;;;;10.77;6.10;;;5.70;99.90;;;;;;20680878;28;20409;-49
2022/04/01 12:43:45;;;;;;;11.00;4.80;;;5.90;99.90;;;;;;20680019;28;20689;-53
2022/04/01 12:54:04;;;;;;;10.23;4.30;;;6.50;99.90;;;;;;20679556;28;20394;-50
2022/04/01 13:04:09;;;;;;;5.35;3.78;;;6.40;99.90;;;;;;20654470;28;20042;-50
2022/04/01 13:14:29;;;;;;;11.60;4.18;;;6.70;99.90;;;;;;20681557;28;20141;-51
2022/04/01 13:24:37;;;;;;;6.07;3.53;;;7.30;99.90;;;;;;20680901;28;20390;-51
2022/04/01 13:34:40;;;;;;;4.88;3.67;;;6.90;99.90;;;;;;20676767;28;20042;-51
2022/04/01 13:44:43;;;;;;;6.30;4.28;;;6.60;99.90;;;;;;20675357;28;20097;-59
2022/04/01 13:54:46;;;;;;;7.15;5.03;;;6.60;99.90;;;;;;20674734;28;20137;-59
2022/04/01 14:04:48;;;;;;;7.93;4.88;;;6.90;99.90;;;;;;20674338;28;20034;-52
2022/04/01 14:14:52;;;;;;;4.82;3.10;;;7.30;99.90;;;;;;20673493;28;20405;-51
2022/04/01 14:24:54;;;;;;;5.70;2.92;;;7.40;99.90;;;;;;20672712;28;20042;-48
2022/04/01 14:34:58;;;;;;;5.68;3.08;;;7.30;99.90;;;;;;20655931;28;20039;-50
2022/04/01 14:45:04;;;;;;;5.45;3.42;;;7.40;99.90;;;;;;20671428;28;20054;-49
2022/04/01 14:55:08;;;;;;;8.40;4.28;;;7.50;99.90;;;;;;20670627;28;20034;-48
2022/04/01 15:05:13;;;;;;;7.15;3.55;;;7.40;99.90;;;;;;20670065;28;20034;-51
2022/04/01 15:15:18;;;;;;;6.60;3.92;;;7.60;99.90;;;;;;20668703;28;20104;-57
2022/04/01 15:25:20;;;;;;;7.07;4.25;;;7.50;99.90;;;;;;20669071;28;20089;-47
2022/04/01 15:35:23;;;;;;;8.07;4.85;;;7.10;99.90;;;;;;20669136;28;20038;-48
2022/04/01 15:45:33;;;;;;;6.30;4.15;;;6.80;99.90;;;;;;20668313;28;20050;-57
2022/04/01 15:55:35;;;;;;;7.00;4.03;;;6.80;99.90;;;;;;20668208;28;20045;-49
2022/04/01 16:05:40;;;;;;;6.20;4.38;;;6.70;99.90;;;;;;20671772;28;20065;-49
2022/04/01 16:15:43;;;;;;;8.32;5.38;;;6.20;99.90;;;;;;20667618;28;20113;-47
2022/04/01 16:25:47;;;;;;;8.55;5.45;;;6.10;99.90;;;;;;20675935;28;20069;-48
2022/04/01 16:35:53;;;;;;;9.13;6.32;;;6.00;99.90;;;;;;20681126;28;20035;-51
2022/04/01 16:45:56;;;;;;;12.25;6.82;;;5.80;99.90;;;;;;20680446;28;20050;-52
2022/04/01 16:55:59;;;;;;;11.70;7.28;;;5.60;99.90;;;;;;20679663;28;20035;-51
2022/04/01 17:16:24;;;;;;;11.38;6.88;;;5.10;99.90;;;;;;20678229;28;20449;-48
2022/04/01 17:26:27;;;;;;;12.88;8.15;;;4.70;99.90;;;;;;20660933;28;20093;-48
2022/04/01 17:36:31;;;;;;;13.25;7.75;;;4.40;99.90;;;;;;20643927;28;20038;-50
2022/04/01 17:46:34;;;;;;;17.55;9.45;;;4.20;99.90;;;;;;20676016;28;20088;-45
2022/04/01 17:56:52;;;;;;;17.65;9.80;;;4.20;99.90;;;;;;20677398;28;20061;-49
2022/04/01 18:06:56;;;;;;;642.95;38.63;;;4.30;99.90;;;;;;20675306;28;20485;-51
2022/04/01 18:17:00;;;;;;;406.45;18.05;;;4.30;99.90;;;;;;20673820;28;20038;-52
2022/04/01 18:27:09;;;;;;;430.35;16.77;;;3.80;99.90;;;;;;20672688;28;20100;-51
2022/04/01 18:37:14;;;;;;;246.15;9.68;;;2.80;99.90;;;;;;20672091;28;20104;-50
2022/04/01 18:47:16;;;;;;;351.00;13.50;;;2.00;99.90;;;;;;20671458;28;20038;-47
2022/04/01 18:57:19;;;;;;;1.52;0.50;;;1.40;99.90;;;;;;20673695;28;20085;-48
2022/04/01 19:07:49;;;;;;;1.40;0.40;;;1.10;99.90;;;;;;20654702;28;20038;-45
2022/04/01 19:17:55;;;;;;;0.95;0.45;;;0.90;99.90;;;;;;20469052;29;20166;-44
2022/04/01 19:27:59;;;;;;;3.22;0.70;;;0.90;99.90;;;;;;20484908;29;20044;-46
2022/04/01 19:38:05;;;;;;;4.70;0.75;;;1.00;99.90;;;;;;20484496;29;20044;-46
2022/04/01 19:48:08;;;;;;;1.42;0.88;;;0.90;99.90;;;;;;20504381;28;20382;-46
2022/04/01 19:58:11;;;;;;;1.92;0.60;;;0.80;99.90;;;;;;20676700;28;20042;-47
2022/04/01 20:08:14;;;;;;;3.72;1.15;;;0.80;99.90;;;;;;20663543;28;20038;-44
2022/04/01 20:18:16;;;;;;;3.20;1.40;;;0.90;99.90;;;;;;20682234;28;20239;-55
2022/04/01 20:28:21;;;;;;;4.30;1.80;;;0.90;99.90;;;;;;20681567;28;20030;-45
2022/04/01 20:38:24;;;;;;;3.67;1.77;;;0.90;99.90;;;;;;20680216;28;20050;-45
2022/04/01 20:48:27;;;;;;;1.00;0.50;;;0.90;99.90;;;;;;20663825;28;20031;-45
2022/04/01 20:58:29;;;;;;;5.35;1.73;;;0.90;99.90;;;;;;20678996;28;20046;-47
2022/04/01 21:08:32;;;;;;;5.68;1.80;;;0.90;99.90;;;;;;20678715;28;20030;-53
2022/04/01 21:18:34;;;;;;;3.15;1.40;;;0.90;99.90;;;;;;20662593;28;20034;-53
2022/04/01 21:28:38;;;;;;;4.13;1.33;;;0.90;99.90;;;;;;20660651;28;20187;-54
2022/04/01 21:38:40;;;;;;;4.32;1.33;;;0.80;99.90;;;;;;20642988;28;20043;-51
2022/04/01 21:48:43;;;;;;;5.25;1.92;;;0.70;99.90;;;;;;20674988;28;20120;-50
2022/04/01 21:58:46;;;;;;;6.80;1.70;;;0.50;99.90;;;;;;20657765;28;20100;-48
2022/04/01 22:08:49;;;;;;;4.53;1.10;;;0.30;99.90;;;;;;20673450;28;20104;-49
2022/04/01 22:18:51;;;;;;;5.93;1.30;;;0.20;99.90;;;;;;20672161;28;20034;-49
2022/04/01 22:28:55;;;;;;;1.80;0.80;;;0.10;99.90;;;;;;20672926;28;20038;-46
2022/04/01 22:38:58;;;;;;;2.80;0.93;;;0.20;99.90;;;;;;20638552;28;20108;-46
2022/04/01 22:49:00;;;;;;;2.03;0.70;;;0.30;99.90;;;;;;20670469;28;20038;-47
2022/04/01 22:59:03;;;;;;;4.25;1.00;;;0.20;99.90;;;;;;20672093;28;20100;-47
2022/04/01 23:09:05;;;;;;;3.40;1.27;;;0.00;99.90;;;;;;20670036;28;20406;-46
2022/04/01 23:19:08;;;;;;;7.00;1.17;;;-0.20;99.90;;;;;;20669246;28;20494;-47
2022/04/01 23:29:11;;;;;;;4.03;1.40;;;-0.10;99.90;;;;;;20669043;28;20100;-46
2022/04/01 23:39:14;;;;;;;5.15;1.40;;;0.10;99.90;;;;;;20684163;28;20054;-49
2022/04/01 23:49:19;;;;;;;4.90;1.40;;;0.30;99.90;;;;;;20685722;28;20065;-47
2022/04/01 23:59:22;;;;;;;2.20;1.08;;;0.30;99.90;;;;;;20683380;28;20088;-47
